createdAt,value
2022-10-19T00:01:15.580Z,74.00
2022-10-19T00:03:44.430Z,74.00
2022-10-19T00:06:26.501Z,74.00
2022-10-19T00:09:05.882Z,73.90
2022-10-19T00:11:35.182Z,73.70
2022-10-19T00:14:02.593Z,73.90
2022-10-19T00:16:33.794Z,73.90
2022-10-19T00:19:05.705Z,73.80
2022-10-19T00:21:32.681Z,73.90
2022-10-19T00:23:59.584Z,73.90
2022-10-19T00:26:28.166Z,74.00
2022-10-19T00:28:56.426Z,74.00
2022-10-19T00:31:23.949Z,74.10
2022-10-19T00:33:51.388Z,74.10
2022-10-19T00:36:24.410Z,74.00
2022-10-19T00:38:52.546Z,74.00
2022-10-19T00:41:22.122Z,74.00
2022-10-19T00:43:51.855Z,73.90
2022-10-19T00:46:18.789Z,73.80
2022-10-19T00:48:45.956Z,73.70
2022-10-19T00:51:13.829Z,73.60
2022-10-19T00:53:42.054Z,73.50
2022-10-19T00:56:14.212Z,73.50
2022-10-19T00:58:43.730Z,73.40
2022-10-19T01:01:16.537Z,73.30
2022-10-19T01:03:45.234Z,73.30
2022-10-19T01:06:15.959Z,73.20
2022-10-19T01:08:42.820Z,73.30
2022-10-19T01:11:43.417Z,73.30
2022-10-19T01:14:28.711Z,73.30
2022-10-19T01:17:38.581Z,73.20
2022-10-19T01:20:41.786Z,73.20
2022-10-19T01:23:36.293Z,73.20
2022-10-19T01:26:11.861Z,73.20
2022-10-19T01:29:08.521Z,73.40
2022-10-19T01:31:50.261Z,73.40
2022-10-19T01:34:26.092Z,73.50
2022-10-19T01:37:33.679Z,73.60
2022-10-19T01:40:08.048Z,73.50
2022-10-19T01:42:57.345Z,73.70
2022-10-19T01:45:39.593Z,73.70
2022-10-19T01:48:32.394Z,73.70
2022-10-19T01:51:11.042Z,73.50
2022-10-19T01:53:49.248Z,73.70
2022-10-19T01:56:21.829Z,73.80
2022-10-19T01:58:51.698Z,73.90
2022-10-19T02:01:23.745Z,73.90
2022-10-19T02:03:53.573Z,74.00
2022-10-19T02:06:22.066Z,74.00
2022-10-19T02:08:52.885Z,74.00
2022-10-19T02:11:21.891Z,74.20
2022-10-19T02:14:10.191Z,73.70
2022-10-19T02:16:58.000Z,74.00
2022-10-19T02:21:57.760Z,74.20
2022-10-19T02:24:25.042Z,74.20
2022-10-19T02:26:54.017Z,74.30
2022-10-19T02:29:21.316Z,74.40
2022-10-19T02:31:51.320Z,74.50
2022-10-19T02:34:18.416Z,74.60
2022-10-19T02:36:45.488Z,74.60
2022-10-19T02:39:12.378Z,74.60
2022-10-19T02:42:04.176Z,74.60
2022-10-19T02:45:00.144Z,74.70
2022-10-19T02:47:49.382Z,74.60
2022-10-19T02:50:19.227Z,74.60
2022-10-19T02:52:46.052Z,74.60
2022-10-19T02:55:12.911Z,74.60
2022-10-19T02:57:39.749Z,74.60
2022-10-19T03:00:08.764Z,74.60
2022-10-19T03:02:35.735Z,74.60
2022-10-19T03:05:03.922Z,74.60
2022-10-19T03:07:30.806Z,74.50
2022-10-19T03:09:57.844Z,74.50
2022-10-19T03:12:24.690Z,74.50
2022-10-19T03:14:51.540Z,74.50
2022-10-19T03:17:18.395Z,74.50
2022-10-19T03:19:46.351Z,74.50
2022-10-19T03:22:14.946Z,74.60
2022-10-19T03:24:41.770Z,74.60
2022-10-19T03:27:08.723Z,74.60
2022-10-19T03:29:35.532Z,74.60
2022-10-19T03:32:02.447Z,74.60
2022-10-19T03:34:29.323Z,74.50
2022-10-19T03:36:56.782Z,74.60
2022-10-19T03:39:23.575Z,74.50
2022-10-19T03:41:50.580Z,74.50
2022-10-19T03:44:17.420Z,74.40
2022-10-19T03:46:44.240Z,74.40
2022-10-19T03:49:12.045Z,74.20
2022-10-19T03:51:38.934Z,74.10
2022-10-19T03:54:11.980Z,73.90
2022-10-19T03:56:39.264Z,73.80
2022-10-19T03:59:07.226Z,73.60
2022-10-19T04:01:38.770Z,73.40
2022-10-19T04:04:11.774Z,73.30
2022-10-19T04:06:43.999Z,73.20
2022-10-19T04:09:16.294Z,73.30
2022-10-19T04:11:43.778Z,73.50
2022-10-19T04:14:19.241Z,73.40
2022-10-19T04:16:53.995Z,73.50
2022-10-19T04:19:20.852Z,73.50
2022-10-19T04:21:49.694Z,73.60
2022-10-19T04:24:18.981Z,73.80
2022-10-19T04:26:56.787Z,74.00
2022-10-19T04:29:29.512Z,74.30
2022-10-19T04:31:57.685Z,74.50
2022-10-19T04:34:24.543Z,74.80
2022-10-19T04:36:53.257Z,74.90
2022-10-19T04:39:20.029Z,75.00
2022-10-19T04:41:46.804Z,75.10
2022-10-19T04:44:13.791Z,75.20
2022-10-19T04:46:40.689Z,75.20
2022-10-19T04:49:07.739Z,75.40
2022-10-19T04:51:35.316Z,75.40
2022-10-19T04:54:04.469Z,75.50
2022-10-19T04:56:32.404Z,75.50
2022-10-19T04:59:00.835Z,75.40
2022-10-19T05:01:30.285Z,75.50
2022-10-19T05:04:01.007Z,75.50
2022-10-19T05:06:29.047Z,75.50
2022-10-19T05:08:56.310Z,75.20
2022-10-19T05:11:23.793Z,75.10
2022-10-19T05:13:51.116Z,75.20
2022-10-19T05:16:21.572Z,75.30
2022-10-19T05:18:56.719Z,75.40
2022-10-19T05:21:23.733Z,75.50
2022-10-19T05:23:55.473Z,75.60
2022-10-19T05:26:25.815Z,75.60
2022-10-19T05:28:56.852Z,75.60
2022-10-19T05:31:28.041Z,75.70
2022-10-19T05:33:58.803Z,75.70
2022-10-19T05:36:38.087Z,75.30
2022-10-19T05:39:17.511Z,75.50
2022-10-19T05:41:46.607Z,75.50
2022-10-19T05:44:22.818Z,75.60
2022-10-19T05:46:51.445Z,75.70
2022-10-19T05:49:22.451Z,75.70
2022-10-19T05:51:49.984Z,75.80
2022-10-19T05:54:17.370Z,75.80
2022-10-19T05:56:45.327Z,75.90
2022-10-19T05:59:18.760Z,76.40
2022-10-19T06:01:47.207Z,75.90
2022-10-19T06:04:15.119Z,76.00
2022-10-19T06:06:43.066Z,76.10
2022-10-19T06:09:10.829Z,76.10
2022-10-19T06:11:41.546Z,76.10
2022-10-19T06:14:13.512Z,76.20
2022-10-19T06:16:41.213Z,76.10
2022-10-19T06:19:08.310Z,76.10
2022-10-19T06:21:35.456Z,76.10
2022-10-19T06:24:05.784Z,76.00
2022-10-19T06:26:35.747Z,75.90
2022-10-19T06:29:03.856Z,75.90
2022-10-19T06:31:36.502Z,75.80
2022-10-19T06:34:04.129Z,75.70
2022-10-19T06:36:32.336Z,75.80
2022-10-19T06:39:01.630Z,75.70
2022-10-19T06:41:30.662Z,75.80
2022-10-19T06:43:57.755Z,75.90
2022-10-19T06:46:27.065Z,75.80
2022-10-19T06:48:57.869Z,75.80
2022-10-19T06:51:26.260Z,75.70
2022-10-19T06:53:57.129Z,75.10
2022-10-19T06:56:26.686Z,75.60
2022-10-19T06:58:54.547Z,75.50
2022-10-19T07:01:22.111Z,75.50
2022-10-19T07:03:54.149Z,75.40
2022-10-19T07:06:21.646Z,75.30
2022-10-19T07:08:49.324Z,75.20
2022-10-19T07:11:19.866Z,75.20
2022-10-19T07:13:46.721Z,75.30
2022-10-19T07:16:21.235Z,75.10
2022-10-19T07:18:51.692Z,75.00
2022-10-19T07:21:20.689Z,75.00
2022-10-19T07:23:48.364Z,75.00
2022-10-19T07:26:23.667Z,75.20
2022-10-19T07:28:51.443Z,74.90
2022-10-19T07:31:22.366Z,75.20
2022-10-19T07:33:58.796Z,75.20
2022-10-19T07:36:28.354Z,74.80
2022-10-19T07:38:55.672Z,75.10
2022-10-19T07:41:24.976Z,75.10
2022-10-19T07:43:53.266Z,75.10
2022-10-19T07:46:29.002Z,75.10
2022-10-19T07:48:56.048Z,74.60
2022-10-19T07:51:23.361Z,74.80
2022-10-19T07:53:50.365Z,74.80
2022-10-19T07:56:24.158Z,74.70
2022-10-19T07:58:53.620Z,74.50
2022-10-19T08:01:24.251Z,74.30
2022-10-19T08:06:41.039Z,74.00
2022-10-19T08:09:07.994Z,74.10
2022-10-19T08:11:36.538Z,74.00
2022-10-19T08:14:04.196Z,74.00
2022-10-19T08:16:40.355Z,74.20
2022-10-19T08:19:13.213Z,74.00
2022-10-19T08:21:45.008Z,74.40
2022-10-19T08:24:15.949Z,74.20
2022-10-19T08:26:43.404Z,74.40
2022-10-19T08:29:21.167Z,74.50
2022-10-19T08:31:49.614Z,73.80
2022-10-19T08:34:16.924Z,74.30
2022-10-19T08:36:44.420Z,74.30
2022-10-19T08:39:16.324Z,74.40
2022-10-19T08:41:43.166Z,74.30
2022-10-19T08:44:59.425Z,74.00
2022-10-19T08:48:04.441Z,72.20
2022-10-19T09:12:07.760Z,72.00
2022-10-19T09:15:06.940Z,71.20
2022-10-19T09:17:34.633Z,70.20
2022-10-19T09:20:20.430Z,71.30
2022-10-19T09:23:15.506Z,70.10
2022-10-19T09:25:42.552Z,71.10
2022-10-19T09:28:53.749Z,71.40
2022-10-19T09:31:39.580Z,70.20
2022-10-19T09:34:22.900Z,70.20
2022-10-19T09:36:57.310Z,70.70
2022-10-19T09:39:29.498Z,70.80
2022-10-19T09:41:57.782Z,71.30
2022-10-19T09:44:26.770Z,71.20
2022-10-19T09:47:28.599Z,71.00
2022-10-19T09:50:23.362Z,69.50
2022-10-19T09:52:56.577Z,69.30
2022-10-19T09:55:27.007Z,70.50
2022-10-19T09:58:06.125Z,70.50
2022-10-19T10:00:42.713Z,69.50
2022-10-19T10:03:22.923Z,70.00
2022-10-19T10:05:50.514Z,69.10
2022-10-19T10:08:25.753Z,70.20
2022-10-19T10:11:07.837Z,69.80
2022-10-19T10:14:09.117Z,69.20
2022-10-19T10:16:37.006Z,69.30
2022-10-19T10:19:10.687Z,70.40
2022-10-19T10:21:55.553Z,70.10
2022-10-19T10:24:29.478Z,69.30
2022-10-19T10:27:05.116Z,70.20
2022-10-19T10:29:39.223Z,70.10
2022-10-19T10:32:19.350Z,69.90
2022-10-19T10:34:57.282Z,69.50
2022-10-19T10:37:47.397Z,70.30
2022-10-19T10:40:30.921Z,69.50
2022-10-19T10:43:15.557Z,68.90
2022-10-19T10:45:48.248Z,68.80
2022-10-19T10:48:24.870Z,70.00
2022-10-19T10:50:52.935Z,69.50
2022-10-19T10:53:41.131Z,69.80
2022-10-19T10:56:25.089Z,68.80
2022-10-19T10:59:06.391Z,68.30
2022-10-19T11:01:52.900Z,68.80
2022-10-19T11:04:28.538Z,69.30
2022-10-19T11:07:18.588Z,69.20
2022-10-19T11:09:54.460Z,69.30
2022-10-19T11:12:51.546Z,69.00
2022-10-19T11:15:33.531Z,68.30
2022-10-19T11:18:27.564Z,68.40
2022-10-19T11:21:17.153Z,67.70
2022-10-19T11:24:13.385Z,67.80
2022-10-19T11:27:24.693Z,68.10
2022-10-19T11:30:16.954Z,68.60
2022-10-19T11:33:25.531Z,67.80
2022-10-19T11:35:59.145Z,67.50
2022-10-19T11:38:36.497Z,68.90
2022-10-19T11:41:20.114Z,67.80
2022-10-19T11:44:14.365Z,68.80
2022-10-19T11:47:15.576Z,66.50
2022-10-19T11:49:57.331Z,66.30
2022-10-19T11:53:03.923Z,67.50
2022-10-19T11:56:03.344Z,65.90
2022-10-19T11:58:35.383Z,65.80
2022-10-19T12:01:52.651Z,66.10
2022-10-19T12:04:35.836Z,65.10
2022-10-19T12:07:48.949Z,65.70
2022-10-19T12:10:42.814Z,66.00
2022-10-19T12:13:18.671Z,64.00
2022-10-19T12:15:50.858Z,65.30
2022-10-19T12:18:35.771Z,64.90
2022-10-19T12:21:11.860Z,63.60
2022-10-19T12:23:46.616Z,64.30
2022-10-19T12:26:19.820Z,64.40
2022-10-19T12:29:06.085Z,63.70
2022-10-19T12:31:33.630Z,63.00
2022-10-19T12:34:25.607Z,64.00
2022-10-19T12:37:07.564Z,62.40
2022-10-19T12:39:56.117Z,62.70
2022-10-19T12:42:53.755Z,64.00
2022-10-19T12:45:49.362Z,62.60
2022-10-19T12:48:20.365Z,63.40
2022-10-19T12:50:50.344Z,64.20
2022-10-19T12:53:36.412Z,63.80
2022-10-19T12:56:25.321Z,63.20
2022-10-19T12:59:01.376Z,62.90
2022-10-19T13:01:34.236Z,63.90
2022-10-19T13:04:32.644Z,64.80
2022-10-19T13:07:10.946Z,64.00
2022-10-19T13:09:43.833Z,65.30
2022-10-19T13:12:16.312Z,64.80
2022-10-19T13:14:52.541Z,65.10
2022-10-19T13:17:35.015Z,64.80
2022-10-19T13:20:14.188Z,64.40
2022-10-19T13:23:13.067Z,64.20
2022-10-19T13:25:41.728Z,65.70
2022-10-19T13:28:28.887Z,65.30
2022-10-19T13:31:05.877Z,63.00
2022-10-19T13:33:47.059Z,64.70
2022-10-19T13:36:14.486Z,62.00
2022-10-19T13:38:59.346Z,63.30
2022-10-19T13:41:49.994Z,61.70
2022-10-19T13:44:25.015Z,61.90
2022-10-19T13:47:10.024Z,61.10
2022-10-19T13:49:51.628Z,60.60
2022-10-19T13:52:36.057Z,61.90
2022-10-19T13:55:33.033Z,61.60
2022-10-19T13:58:41.512Z,59.90
2022-10-19T14:01:20.404Z,59.70
2022-10-19T14:04:05.843Z,59.80
2022-10-19T14:06:44.841Z,61.50
2022-10-19T14:09:50.089Z,60.60
2022-10-19T14:12:30.152Z,60.50
2022-10-19T14:14:58.174Z,60.90
2022-10-19T14:17:30.118Z,63.40
2022-10-19T14:19:59.922Z,62.40
2022-10-19T14:22:36.002Z,61.50
2022-10-19T14:25:21.008Z,61.00
2022-10-19T14:27:56.257Z,58.30
2022-10-19T14:30:29.417Z,59.90
2022-10-19T14:32:59.559Z,59.90
2022-10-19T14:35:34.265Z,59.70
2022-10-19T14:38:02.711Z,59.30
2022-10-19T14:40:33.191Z,59.80
2022-10-19T14:43:01.655Z,59.70
2022-10-19T14:45:32.766Z,60.40
2022-10-19T14:48:06.849Z,60.30
2022-10-19T14:50:49.760Z,60.60
2022-10-19T14:53:47.723Z,60.60
2022-10-19T14:56:18.912Z,61.20
2022-10-19T14:58:57.915Z,64.70
2022-10-19T15:01:25.245Z,60.50
2022-10-19T15:03:52.854Z,63.20
2022-10-19T15:06:26.259Z,61.80
2022-10-19T15:09:15.378Z,58.20
2022-10-19T15:11:53.525Z,54.90
2022-10-19T15:14:30.147Z,55.00
2022-10-19T15:17:21.054Z,51.70
2022-10-19T15:19:48.033Z,50.60
2022-10-19T15:22:32.201Z,52.00
2022-10-19T15:25:06.361Z,51.40
2022-10-19T15:27:47.131Z,51.30
2022-10-19T15:30:22.473Z,50.20
2022-10-19T15:33:02.228Z,50.60
2022-10-19T15:35:33.534Z,50.90
2022-10-19T15:38:20.464Z,52.50
2022-10-19T15:40:48.373Z,52.10
2022-10-19T15:43:39.222Z,53.60
2022-10-19T15:46:31.065Z,52.90
2022-10-19T15:49:19.339Z,53.40
2022-10-19T15:51:48.229Z,54.60
2022-10-19T15:54:18.898Z,55.10
2022-10-19T15:56:47.567Z,55.40
2022-10-19T15:59:21.182Z,55.70
2022-10-19T16:01:53.713Z,55.90
2022-10-19T16:04:22.786Z,56.30
2022-10-19T16:06:49.583Z,56.50
2022-10-19T16:09:21.233Z,56.90
2022-10-19T16:12:01.148Z,57.10
2022-10-19T16:14:28.596Z,57.50
2022-10-19T16:16:59.359Z,57.90
2022-10-19T16:19:26.204Z,58.10
2022-10-19T16:21:53.056Z,58.30
2022-10-19T16:24:19.968Z,58.50
2022-10-19T16:26:46.780Z,58.70
2022-10-19T16:29:13.602Z,58.90
2022-10-19T16:31:40.566Z,59.20
2022-10-19T16:34:07.431Z,59.40
2022-10-19T16:36:34.245Z,59.60
2022-10-19T16:39:01.274Z,59.80
2022-10-19T16:41:28.241Z,60.00
2022-10-19T16:43:57.227Z,60.20
2022-10-19T16:46:26.999Z,60.40
2022-10-19T16:48:55.392Z,60.70
2022-10-19T16:51:38.792Z,60.90
2022-10-19T16:54:09.134Z,61.20
2022-10-19T16:56:37.214Z,61.30
2022-10-19T16:59:06.697Z,61.40
2022-10-19T17:01:35.115Z,61.70
2022-10-19T17:04:02.151Z,62.00
2022-10-19T17:06:29.346Z,62.20
2022-10-19T17:11:45.380Z,62.80
2022-10-19T17:14:13.167Z,62.90
2022-10-19T17:16:40.778Z,63.10
2022-10-19T17:19:09.033Z,63.30
2022-10-19T17:21:38.647Z,63.40
2022-10-19T17:24:08.851Z,63.50
2022-10-19T17:26:39.998Z,63.50
2022-10-19T17:29:07.079Z,63.60
2022-10-19T17:31:35.711Z,63.60
2022-10-19T17:34:03.401Z,63.60
2022-10-19T17:36:34.171Z,63.70
2022-10-19T17:39:09.616Z,63.60
2022-10-19T17:41:36.441Z,63.20
2022-10-19T17:44:04.912Z,63.50
2022-10-19T17:46:34.578Z,63.70
2022-10-19T17:49:02.143Z,63.70
2022-10-19T17:51:32.818Z,63.70
2022-10-19T17:54:07.596Z,63.50
2022-10-19T17:56:36.245Z,63.50
2022-10-19T17:59:04.256Z,63.40
2022-10-19T18:01:31.667Z,63.40
2022-10-19T18:03:58.765Z,63.40
2022-10-19T18:06:31.388Z,63.50
2022-10-19T18:09:00.440Z,63.60
2022-10-19T18:11:36.844Z,63.50
2022-10-19T18:14:05.233Z,63.50
2022-10-19T18:16:45.262Z,63.50
2022-10-19T18:19:16.926Z,63.50
2022-10-19T18:21:46.907Z,63.60
2022-10-19T18:24:19.775Z,63.70
2022-10-19T18:26:50.667Z,63.70
2022-10-19T18:29:20.933Z,63.70
2022-10-19T18:31:52.459Z,63.60
2022-10-19T18:34:25.980Z,63.60
2022-10-19T18:36:54.366Z,64.30
2022-10-19T18:39:21.787Z,63.70
2022-10-19T18:41:55.156Z,63.90
2022-10-19T18:44:26.308Z,64.10
2022-10-19T18:46:54.282Z,64.00
2022-10-19T18:49:21.156Z,64.10
2022-10-19T18:51:54.210Z,64.10
2022-10-19T18:54:23.057Z,64.30
2022-10-19T18:56:49.834Z,64.30
2022-10-19T18:59:16.905Z,64.40
2022-10-19T19:01:43.902Z,64.50
2022-10-19T19:04:11.009Z,64.50
2022-10-19T19:06:38.804Z,64.70
2022-10-19T19:09:11.923Z,64.80
2022-10-19T19:11:41.056Z,65.10
2022-10-19T19:14:16.465Z,65.00
2022-10-19T19:16:45.197Z,65.30
2022-10-19T19:19:15.491Z,65.20
2022-10-19T19:21:44.510Z,65.40
2022-10-19T19:24:21.705Z,65.40
2022-10-19T19:26:52.745Z,65.50
2022-10-19T19:29:21.235Z,65.50
2022-10-19T19:31:48.536Z,65.40
2022-10-19T19:34:15.523Z,65.30
2022-10-19T19:36:47.372Z,65.20
2022-10-19T19:39:18.820Z,65.20
2022-10-19T19:41:46.231Z,65.20
2022-10-19T19:44:13.027Z,65.20
2022-10-19T19:46:39.857Z,65.20
2022-10-19T19:49:06.750Z,65.20
2022-10-19T19:51:33.883Z,65.20
2022-10-19T19:54:01.007Z,65.20
2022-10-19T19:56:28.993Z,65.30
2022-10-19T19:58:59.445Z,65.30
2022-10-19T20:01:27.011Z,65.40
2022-10-19T20:03:54.652Z,65.40
2022-10-19T20:06:25.065Z,65.50
2022-10-19T20:08:54.365Z,65.60
2022-10-19T20:11:21.945Z,65.70
2022-10-19T20:13:49.503Z,65.70
2022-10-19T20:16:23.812Z,65.80
2022-10-19T20:19:04.979Z,65.90
2022-10-19T20:21:33.503Z,66.10
2022-10-19T20:24:00.378Z,65.90
2022-10-19T20:26:28.355Z,66.10
2022-10-19T20:28:56.078Z,66.20
2022-10-19T20:31:23.977Z,66.30
2022-10-19T20:33:50.966Z,66.30
2022-10-19T20:36:24.549Z,66.30
2022-10-19T20:38:55.109Z,66.40
2022-10-19T20:41:25.490Z,66.40
2022-10-19T20:43:53.774Z,66.50
2022-10-19T20:46:24.690Z,66.50
2022-10-19T20:48:52.113Z,66.60
2022-10-19T20:51:30.663Z,66.60
2022-10-19T20:54:02.471Z,66.40
2022-10-19T20:56:33.662Z,66.40
2022-10-19T20:59:22.899Z,66.60
2022-10-19T21:01:51.698Z,66.70
2022-10-19T21:04:19.205Z,66.70
2022-10-19T21:06:49.077Z,66.80
2022-10-19T21:09:20.830Z,66.90
2022-10-19T21:11:50.246Z,67.00
2022-10-19T21:14:26.935Z,67.00
2022-10-19T21:16:59.972Z,67.00
2022-10-19T21:19:29.688Z,67.10
2022-10-19T21:22:03.379Z,67.20
2022-10-19T21:24:36.648Z,67.30
2022-10-19T21:27:07.612Z,67.40
2022-10-19T21:29:35.952Z,67.50
2022-10-19T21:32:03.380Z,67.40
2022-10-19T21:34:32.023Z,67.40
2022-10-19T21:36:59.490Z,67.50
2022-10-19T21:39:26.364Z,67.50
2022-10-19T21:41:53.419Z,67.50
2022-10-19T21:44:22.929Z,67.60
2022-10-19T21:46:50.585Z,67.70
2022-10-19T21:49:18.018Z,67.70
2022-10-19T21:51:51.983Z,67.80
2022-10-19T21:54:25.157Z,67.90
2022-10-19T21:56:53.325Z,68.00
2022-10-19T21:59:20.323Z,67.90
2022-10-19T22:01:47.302Z,67.90
2022-10-19T22:04:18.728Z,67.90
2022-10-19T22:06:46.413Z,68.20
2022-10-19T22:09:17.957Z,68.00
2022-10-19T22:11:45.679Z,68.00
2022-10-19T22:14:14.811Z,68.10
2022-10-19T22:16:42.496Z,68.20
2022-10-19T22:19:10.140Z,68.30
2022-10-19T22:24:09.859Z,68.30
2022-10-19T22:26:41.551Z,68.40
2022-10-19T22:29:09.045Z,68.50
2022-10-19T22:31:37.563Z,68.40
2022-10-19T22:34:09.716Z,68.40
2022-10-19T22:36:36.924Z,68.50
2022-10-19T22:39:04.915Z,68.50
2022-10-19T22:41:31.681Z,68.60
2022-10-19T22:43:58.535Z,68.60
2022-10-19T22:46:25.277Z,68.70
2022-10-19T22:48:52.044Z,68.80
2022-10-19T22:51:18.832Z,68.90
2022-10-19T22:53:45.629Z,69.00
2022-10-19T22:56:13.509Z,69.10
2022-10-19T22:58:40.410Z,69.20
2022-10-19T23:01:11.587Z,69.50
2022-10-19T23:03:40.256Z,69.90
2022-10-19T23:06:10.510Z,70.10
2022-10-19T23:08:37.980Z,70.30
2022-10-19T23:11:05.382Z,70.50
2022-10-19T23:13:32.459Z,70.60
2022-10-19T23:15:59.294Z,70.70
2022-10-19T23:18:26.222Z,70.80
2022-10-19T23:20:59.097Z,70.90
2022-10-19T23:23:27.318Z,71.30
2022-10-19T23:26:11.330Z,71.10
2022-10-19T23:28:41.365Z,71.50
2022-10-19T23:31:16.539Z,71.20
2022-10-19T23:33:44.829Z,71.30
2022-10-19T23:36:17.140Z,71.10
2022-10-19T23:38:48.482Z,71.40
2022-10-19T23:41:16.250Z,71.20
2022-10-19T23:43:43.227Z,71.20
2022-10-19T23:46:10.323Z,71.20
2022-10-19T23:48:37.435Z,71.20
2022-10-19T23:51:12.302Z,71.30
2022-10-19T23:53:43.410Z,71.40
2022-10-19T23:56:26.070Z,71.20
2022-10-19T23:58:54.271Z,71.50
